sensor_id;sensor_type;location;lat;lon;timestamp;pressure;altitude;pressure_sealevel;temperature;humidity
47080;BME280;33067;49.296;14.470;2023-01-19T00:01:19;95611.67;;;3.86;44.08
47080;BME280;33067;49.296;14.470;2023-01-19T00:03:45;95612.21;;;3.44;43.91
47080;BME280;33067;49.296;14.470;2023-01-19T00:06:09;95612.74;;;3.80;44.22
47080;BME280;33067;49.296;14.470;2023-01-19T00:08:35;95614.92;;;3.52;44.78
47080;BME280;33067;49.296;14.470;2023-01-19T00:11:00;95617.84;;;3.93;44.03
47080;BME280;33067;49.296;14.470;2023-01-19T00:13:26;95619.99;;;3.22;45.07
47080;BME280;33067;49.296;14.470;2023-01-19T00:15:51;95623.84;;;3.61;44.10
47080;BME280;33067;49.296;14.470;2023-01-19T00:18:16;95628.46;;;3.52;44.07
47080;BME280;33067;49.296;14.470;2023-01-19T00:20:43;95633.55;;;3.53;43.92
47080;BME280;33067;49.296;14.470;2023-01-19T00:23:07;95638.77;;;3.45;43.97
47080;BME280;33067;49.296;14.470;2023-01-19T00:25:33;95643.63;;;4.24;43.71
47080;BME280;33067;49.296;14.470;2023-01-19T00:27:59;95644.40;;;4.11;43.79
47080;BME280;33067;49.296;14.470;2023-01-19T00:30:25;95650.57;;;3.85;43.45
47080;BME280;33067;49.296;14.470;2023-01-19T00:32:50;95657.27;;;4.26;42.88
47080;BME280;33067;49.296;14.470;2023-01-19T00:35:16;95660.66;;;4.49;42.12
47080;BME280;33067;49.296;14.470;2023-01-19T00:37:41;95664.36;;;4.37;42.65
47080;BME280;33067;49.296;14.470;2023-01-19T00:40:08;95664.62;;;4.33;42.40
47080;BME280;33067;49.296;14.470;2023-01-19T00:42:32;95662.51;;;4.45;42.57
47080;BME280;33067;49.296;14.470;2023-01-19T00:44:57;95663.57;;;4.88;42.02
47080;BME280;33067;49.296;14.470;2023-01-19T00:47:23;95678.96;;;4.95;41.93
47080;BME280;33067;49.296;14.470;2023-01-19T00:49:48;95684.15;;;4.31;42.91
47080;BME280;33067;49.296;14.470;2023-01-19T00:52:14;95688.98;;;4.74;42.43
47080;BME280;33067;49.296;14.470;2023-01-19T00:54:40;95692.68;;;4.86;42.06
47080;BME280;33067;49.296;14.470;2023-01-19T00:57:05;95690.23;;;4.44;42.40
47080;BME280;33067;49.296;14.470;2023-01-19T00:59:30;95693.77;;;4.99;41.54
47080;BME280;33067;49.296;14.470;2023-01-19T01:01:56;95699.25;;;5.28;41.39
47080;BME280;33067;49.296;14.470;2023-01-19T01:04:21;95705.44;;;5.10;41.61
47080;BME280;33067;49.296;14.470;2023-01-19T01:06:47;95705.99;;;4.63;41.70
47080;BME280;33067;49.296;14.470;2023-01-19T01:09:12;95709.69;;;5.07;41.76
47080;BME280;33067;49.296;14.470;2023-01-19T01:11:37;95714.93;;;4.94;41.72
47080;BME280;33067;49.296;14.470;2023-01-19T01:14:02;95718.65;;;5.05;41.62
47080;BME280;33067;49.296;14.470;2023-01-19T01:16:28;95722.88;;;5.40;41.41
47080;BME280;33067;49.296;14.470;2023-01-19T01:18:53;95727.39;;;5.00;41.73
47080;BME280;33067;49.296;14.470;2023-01-19T01:21:19;95727.04;;;5.15;41.24
47080;BME280;33067;49.296;14.470;2023-01-19T01:23:44;95731.07;;;5.03;41.21
47080;BME280;33067;49.296;14.470;2023-01-19T01:26:09;95734.47;;;5.12;41.72
47080;BME280;33067;49.296;14.470;2023-01-19T01:28:34;95736.45;;;4.98;41.52
47080;BME280;33067;49.296;14.470;2023-01-19T01:30:59;95736.54;;;4.70;41.68
47080;BME280;33067;49.296;14.470;2023-01-19T01:33:25;95738.03;;;5.06;41.45
47080;BME280;33067;49.296;14.470;2023-01-19T01:35:51;95743.26;;;4.73;41.74
47080;BME280;33067;49.296;14.470;2023-01-19T01:38:16;95746.34;;;4.43;42.51
47080;BME280;33067;49.296;14.470;2023-01-19T01:40:42;95748.90;;;4.80;41.73
47080;BME280;33067;49.296;14.470;2023-01-19T01:43:10;95753.14;;;4.68;42.20
47080;BME280;33067;49.296;14.470;2023-01-19T01:45:34;95752.63;;;4.72;42.06
47080;BME280;33067;49.296;14.470;2023-01-19T01:48:02;95744.45;;;4.40;42.62
47080;BME280;33067;49.296;14.470;2023-01-19T01:50:28;95742.15;;;4.31;42.79
47080;BME280;33067;49.296;14.470;2023-01-19T01:52:52;95740.79;;;4.33;42.78
47080;BME280;33067;49.296;14.470;2023-01-19T01:55:15;95742.71;;;4.13;42.97
47080;BME280;33067;49.296;14.470;2023-01-19T01:57:44;95744.06;;;4.62;42.18
47080;BME280;33067;49.296;14.470;2023-01-19T02:00:09;95740.35;;;4.49;42.33
47080;BME280;33067;49.296;14.470;2023-01-19T02:02:33;95737.98;;;4.44;42.37
47080;BME280;33067;49.296;14.470;2023-01-19T02:05:01;95737.32;;;3.91;43.07
47080;BME280;33067;49.296;14.470;2023-01-19T02:07:29;95737.32;;;3.99;43.35
47080;BME280;33067;49.296;14.470;2023-01-19T02:09:50;95734.54;;;4.01;43.24
47080;BME280;33067;49.296;14.470;2023-01-19T02:12:14;95733.67;;;3.72;43.77
47080;BME280;33067;49.296;14.470;2023-01-19T02:14:39;95732.78;;;3.64;43.86
47080;BME280;33067;49.296;14.470;2023-01-19T02:17:05;95729.02;;;3.83;43.77
47080;BME280;33067;49.296;14.470;2023-01-19T02:19:38;95724.08;;;3.65;43.85
47080;BME280;33067;49.296;14.470;2023-01-19T02:22:02;95723.34;;;3.62;43.83
47080;BME280;33067;49.296;14.470;2023-01-19T02:24:23;95721.17;;;4.02;43.62
47080;BME280;33067;49.296;14.470;2023-01-19T02:26:48;95723.80;;;3.57;43.54
47080;BME280;33067;49.296;14.470;2023-01-19T02:29:15;95727.85;;;3.68;43.33
47080;BME280;33067;49.296;14.470;2023-01-19T02:31:38;95729.52;;;3.75;42.93
47080;BME280;33067;49.296;14.470;2023-01-19T02:34:05;95727.63;;;4.18;42.75
47080;BME280;33067;49.296;14.470;2023-01-19T02:36:30;95726.16;;;4.13;42.88
47080;BME280;33067;49.296;14.470;2023-01-19T02:38:56;95727.13;;;4.36;41.81
47080;BME280;33067;49.296;14.470;2023-01-19T02:41:24;95731.26;;;3.89;42.53
47080;BME280;33067;49.296;14.470;2023-01-19T02:43:44;95733.52;;;3.72;42.86
47080;BME280;33067;49.296;14.470;2023-01-19T02:46:10;95737.45;;;4.20;42.83
47080;BME280;33067;49.296;14.470;2023-01-19T02:48:36;95737.20;;;4.38;42.65
47080;BME280;33067;49.296;14.470;2023-01-19T02:51:02;95738.29;;;3.82;43.32
47080;BME280;33067;49.296;14.470;2023-01-19T02:53:39;95737.85;;;3.57;43.81
47080;BME280;33067;49.296;14.470;2023-01-19T02:55:56;95739.19;;;3.48;44.31
47080;BME280;33067;49.296;14.470;2023-01-19T02:58:21;95737.50;;;3.54;43.90
47080;BME280;33067;49.296;14.470;2023-01-19T03:00:48;95737.40;;;3.12;44.25
47080;BME280;33067;49.296;14.470;2023-01-19T03:03:22;95744.61;;;2.67;45.31
47080;BME280;33067;49.296;14.470;2023-01-19T03:05:49;95745.08;;;3.03;44.53
47080;BME280;33067;49.296;14.470;2023-01-19T03:08:06;95747.03;;;2.94;44.85
47080;BME280;33067;49.296;14.470;2023-01-19T03:13:05;95750.03;;;3.30;44.30
47080;BME280;33067;49.296;14.470;2023-01-19T03:15:31;95747.13;;;3.30;44.22
47080;BME280;33067;49.296;14.470;2023-01-19T03:17:52;95745.77;;;2.92;44.76
47080;BME280;33067;49.296;14.470;2023-01-19T03:20:19;95745.33;;;3.00;44.71
47080;BME280;33067;49.296;14.470;2023-01-19T03:22:42;95746.83;;;2.95;44.66
47080;BME280;33067;49.296;14.470;2023-01-19T03:25:07;95744.21;;;2.81;44.90
47080;BME280;33067;49.296;14.470;2023-01-19T03:27:37;95745.31;;;2.77;45.18
47080;BME280;33067;49.296;14.470;2023-01-19T03:29:59;95743.77;;;3.24;44.25
47080;BME280;33067;49.296;14.470;2023-01-19T03:32:28;95745.54;;;3.37;43.92
47080;BME280;33067;49.296;14.470;2023-01-19T03:34:50;95745.30;;;3.77;43.00
47080;BME280;33067;49.296;14.470;2023-01-19T03:37:16;95745.84;;;3.88;42.89
47080;BME280;33067;49.296;14.470;2023-01-19T03:39:40;95745.77;;;3.76;43.13
47080;BME280;33067;49.296;14.470;2023-01-19T03:42:10;95749.05;;;3.39;43.65
47080;BME280;33067;49.296;14.470;2023-01-19T03:44:33;95746.97;;;4.01;42.85
47080;BME280;33067;49.296;14.470;2023-01-19T03:46:57;95751.84;;;3.49;43.18
47080;BME280;33067;49.296;14.470;2023-01-19T03:49:21;95750.97;;;3.10;43.51
47080;BME280;33067;49.296;14.470;2023-01-19T03:51:46;95754.08;;;2.53;45.01
47080;BME280;33067;49.296;14.470;2023-01-19T03:54:12;95758.00;;;2.47;45.02
47080;BME280;33067;49.296;14.470;2023-01-19T03:56:37;95759.16;;;2.78;44.59
47080;BME280;33067;49.296;14.470;2023-01-19T03:59:03;95760.48;;;2.15;45.39
47080;BME280;33067;49.296;14.470;2023-01-19T04:01:28;95758.54;;;2.90;44.27
47080;BME280;33067;49.296;14.470;2023-01-19T04:03:55;95757.68;;;2.94;44.19
47080;BME280;33067;49.296;14.470;2023-01-19T04:06:19;95760.60;;;3.26;43.73
47080;BME280;33067;49.296;14.470;2023-01-19T04:08:44;95764.93;;;3.69;43.02
47080;BME280;33067;49.296;14.470;2023-01-19T04:11:10;95765.38;;;3.38;43.38
47080;BME280;33067;49.296;14.470;2023-01-19T04:13:35;95767.86;;;3.49;43.28
47080;BME280;33067;49.296;14.470;2023-01-19T04:16:01;95771.59;;;3.83;42.64
47080;BME280;33067;49.296;14.470;2023-01-19T04:18:26;95774.56;;;3.58;42.62
47080;BME280;33067;49.296;14.470;2023-01-19T04:20:51;95778.79;;;3.32;42.88
47080;BME280;33067;49.296;14.470;2023-01-19T04:23:16;95781.12;;;3.24;42.94
47080;BME280;33067;49.296;14.470;2023-01-19T04:25:41;95781.13;;;3.34;42.86
47080;BME280;33067;49.296;14.470;2023-01-19T04:28:07;95779.16;;;3.23;42.78
47080;BME280;33067;49.296;14.470;2023-01-19T04:30:32;95776.64;;;3.21;42.99
47080;BME280;33067;49.296;14.470;2023-01-19T04:32:58;95778.22;;;2.69;43.98
47080;BME280;33067;49.296;14.470;2023-01-19T04:35:26;95780.52;;;2.50;43.64
47080;BME280;33067;49.296;14.470;2023-01-19T04:37:49;95781.11;;;2.45;44.11
47080;BME280;33067;49.296;14.470;2023-01-19T04:40:15;95785.78;;;2.67;44.03
47080;BME280;33067;49.296;14.470;2023-01-19T04:42:42;95787.92;;;2.68;44.03
47080;BME280;33067;49.296;14.470;2023-01-19T04:45:07;95792.16;;;3.16;42.87
47080;BME280;33067;49.296;14.470;2023-01-19T04:47:31;95793.08;;;3.20;42.73
47080;BME280;33067;49.296;14.470;2023-01-19T04:49:56;95792.83;;;3.34;42.82
47080;BME280;33067;49.296;14.470;2023-01-19T04:52:22;95797.63;;;3.35;42.60
47080;BME280;33067;49.296;14.470;2023-01-19T04:54:47;95801.18;;;3.79;41.90
47080;BME280;33067;49.296;14.470;2023-01-19T04:57:13;95807.71;;;3.18;42.02
47080;BME280;33067;49.296;14.470;2023-01-19T04:59:38;95812.87;;;3.39;41.84
47080;BME280;33067;49.296;14.470;2023-01-19T05:02:03;95816.66;;;3.94;41.51
47080;BME280;33067;49.296;14.470;2023-01-19T05:04:29;95820.84;;;3.91;41.22
47080;BME280;33067;49.296;14.470;2023-01-19T05:06:54;95824.52;;;3.86;41.15
47080;BME280;33067;49.296;14.470;2023-01-19T05:09:20;95826.59;;;3.58;41.63
47080;BME280;33067;49.296;14.470;2023-01-19T05:11:45;95831.01;;;3.47;41.61
47080;BME280;33067;49.296;14.470;2023-01-19T05:14:10;95832.96;;;3.25;41.91
47080;BME280;33067;49.296;14.470;2023-01-19T05:16:36;95837.72;;;2.96;42.60
47080;BME280;33067;49.296;14.470;2023-01-19T05:19:02;95841.81;;;3.24;42.32
47080;BME280;33067;49.296;14.470;2023-01-19T05:21:27;95850.65;;;3.03;42.23
47080;BME280;33067;49.296;14.470;2023-01-19T05:23:53;95852.20;;;3.17;42.40
47080;BME280;33067;49.296;14.470;2023-01-19T05:26:18;95856.81;;;3.35;42.18
47080;BME280;33067;49.296;14.470;2023-01-19T05:28:44;95852.34;;;3.30;42.19
47080;BME280;33067;49.296;14.470;2023-01-19T05:31:10;95851.86;;;3.21;42.25
47080;BME280;33067;49.296;14.470;2023-01-19T05:33:35;95856.77;;;3.35;42.21
47080;BME280;33067;49.296;14.470;2023-01-19T05:36:01;95858.77;;;3.25;41.97
47080;BME280;33067;49.296;14.470;2023-01-19T05:38:27;95864.79;;;3.33;41.95
47080;BME280;33067;49.296;14.470;2023-01-19T05:40:57;95867.92;;;3.20;42.04
47080;BME280;33067;49.296;14.470;2023-01-19T05:43:17;95872.73;;;3.18;42.05
47080;BME280;33067;49.296;14.470;2023-01-19T05:45:43;95876.16;;;3.48;41.76
47080;BME280;33067;49.296;14.470;2023-01-19T05:48:08;95882.44;;;3.81;41.20
47080;BME280;33067;49.296;14.470;2023-01-19T05:50:34;95887.19;;;4.11;40.53
47080;BME280;33067;49.296;14.470;2023-01-19T05:52:59;95889.31;;;4.34;40.23
47080;BME280;33067;49.296;14.470;2023-01-19T05:55:25;95893.90;;;4.22;40.06
47080;BME280;33067;49.296;14.470;2023-01-19T05:57:50;95897.76;;;3.89;39.98
47080;BME280;33067;49.296;14.470;2023-01-19T06:00:15;95903.59;;;3.81;40.06
47080;BME280;33067;49.296;14.470;2023-01-19T06:02:40;95903.92;;;3.50;40.20
47080;BME280;33067;49.296;14.470;2023-01-19T06:05:06;95908.42;;;3.38;40.27
47080;BME280;33067;49.296;14.470;2023-01-19T06:07:31;95913.05;;;3.26;40.71
47080;BME280;33067;49.296;14.470;2023-01-19T06:09:57;95914.36;;;3.32;40.70
47080;BME280;33067;49.296;14.470;2023-01-19T06:12:23;95915.61;;;3.61;40.34
47080;BME280;33067;49.296;14.470;2023-01-19T06:14:48;95919.30;;;4.07;39.66
47080;BME280;33067;49.296;14.470;2023-01-19T06:17:12;95923.97;;;3.94;40.21
47080;BME280;33067;49.296;14.470;2023-01-19T06:19:38;95926.19;;;3.93;40.39
47080;BME280;33067;49.296;14.470;2023-01-19T06:22:03;95928.85;;;4.09;40.14
47080;BME280;33067;49.296;14.470;2023-01-19T06:24:29;95930.33;;;4.08;40.29
47080;BME280;33067;49.296;14.470;2023-01-19T06:26:55;95934.54;;;4.09;39.88
47080;BME280;33067;49.296;14.470;2023-01-19T06:29:19;95939.11;;;4.21;40.08
47080;BME280;33067;49.296;14.470;2023-01-19T06:31:45;95942.17;;;4.31;40.01
47080;BME280;33067;49.296;14.470;2023-01-19T06:34:12;95941.50;;;4.23;40.20
47080;BME280;33067;49.296;14.470;2023-01-19T06:36:37;95943.91;;;4.05;40.03
47080;BME280;33067;49.296;14.470;2023-01-19T06:39:02;95946.03;;;4.21;40.36
47080;BME280;33067;49.296;14.470;2023-01-19T06:41:28;95950.48;;;4.31;40.19
47080;BME280;33067;49.296;14.470;2023-01-19T06:43:53;95951.94;;;4.26;40.26
47080;BME280;33067;49.296;14.470;2023-01-19T06:46:19;95952.52;;;4.06;39.77
47080;BME280;33067;49.296;14.470;2023-01-19T06:48:45;95950.70;;;4.68;39.28
47080;BME280;33067;49.296;14.470;2023-01-19T06:51:10;95947.04;;;4.52;39.59
47080;BME280;33067;49.296;14.470;2023-01-19T06:53:36;95948.24;;;4.40;39.87
47080;BME280;33067;49.296;14.470;2023-01-19T06:56:02;95946.43;;;4.50;39.83
47080;BME280;33067;49.296;14.470;2023-01-19T06:58:29;95945.17;;;4.47;39.99
47080;BME280;33067;49.296;14.470;2023-01-19T07:00:52;95943.33;;;4.51;39.82
47080;BME280;33067;49.296;14.470;2023-01-19T07:03:19;95941.02;;;4.19;39.90
47080;BME280;33067;49.296;14.470;2023-01-19T07:05:42;95944.05;;;4.48;39.37
47080;BME280;33067;49.296;14.470;2023-01-19T07:08:08;95949.04;;;4.20;39.73
47080;BME280;33067;49.296;14.470;2023-01-19T07:10:33;95952.93;;;4.16;39.90
47080;BME280;33067;49.296;14.470;2023-01-19T07:12:59;95957.13;;;4.08;40.10
47080;BME280;33067;49.296;14.470;2023-01-19T07:15:24;95961.30;;;3.90;40.64
47080;BME280;33067;49.296;14.470;2023-01-19T07:17:49;95960.81;;;3.95;40.52
47080;BME280;33067;49.296;14.470;2023-01-19T07:20:15;95961.38;;;4.03;40.05
47080;BME280;33067;49.296;14.470;2023-01-19T07:22:41;95961.35;;;3.96;39.98
47080;BME280;33067;49.296;14.470;2023-01-19T07:25:05;95966.90;;;3.68;40.75
47080;BME280;33067;49.296;14.470;2023-01-19T07:27:31;95966.93;;;3.77;40.84
47080;BME280;33067;49.296;14.470;2023-01-19T07:29:56;95969.67;;;3.88;40.67
47080;BME280;33067;49.296;14.470;2023-01-19T07:32:22;95976.25;;;4.19;40.52
47080;BME280;33067;49.296;14.470;2023-01-19T07:34:47;95981.58;;;3.86;40.60
47080;BME280;33067;49.296;14.470;2023-01-19T07:37:13;95980.61;;;3.98;40.04
47080;BME280;33067;49.296;14.470;2023-01-19T07:39:38;95984.73;;;4.07;40.05
47080;BME280;33067;49.296;14.470;2023-01-19T07:42:04;95984.38;;;4.27;39.63
47080;BME280;33067;49.296;14.470;2023-01-19T07:44:29;95985.01;;;4.08;39.95
47080;BME280;33067;49.296;14.470;2023-01-19T07:46:55;95990.78;;;4.12;39.95
47080;BME280;33067;49.296;14.470;2023-01-19T07:49:20;95996.50;;;4.09;39.97
47080;BME280;33067;49.296;14.470;2023-01-19T07:51:46;95999.47;;;4.11;40.09
47080;BME280;33067;49.296;14.470;2023-01-19T07:54:12;96003.22;;;3.98;39.93
47080;BME280;33067;49.296;14.470;2023-01-19T07:56:37;96002.63;;;4.00;40.06
47080;BME280;33067;49.296;14.470;2023-01-19T07:59:02;95999.99;;;3.80;40.33
47080;BME280;33067;49.296;14.470;2023-01-19T08:01:28;96006.59;;;3.91;40.21
47080;BME280;33067;49.296;14.470;2023-01-19T08:03:53;96007.51;;;3.64;40.36
47080;BME280;33067;49.296;14.470;2023-01-19T08:06:20;96007.72;;;3.86;40.44
47080;BME280;33067;49.296;14.470;2023-01-19T08:08:46;96009.70;;;4.01;40.63
47080;BME280;33067;49.296;14.470;2023-01-19T08:11:09;96014.23;;;4.01;40.81
47080;BME280;33067;49.296;14.470;2023-01-19T08:13:34;96018.06;;;3.92;40.78
47080;BME280;33067;49.296;14.470;2023-01-19T08:16:00;96017.99;;;4.09;40.41
47080;BME280;33067;49.296;14.470;2023-01-19T08:18:24;96018.56;;;4.28;39.62
47080;BME280;33067;49.296;14.470;2023-01-19T08:20:50;96028.84;;;4.09;40.11
47080;BME280;33067;49.296;14.470;2023-01-19T08:23:16;96023.71;;;4.03;40.12
47080;BME280;33067;49.296;14.470;2023-01-19T08:25:42;96025.51;;;4.27;40.05
47080;BME280;33067;49.296;14.470;2023-01-19T08:28:07;96023.53;;;4.34;39.92
47080;BME280;33067;49.296;14.470;2023-01-19T08:30:34;96030.33;;;3.55;40.01
47080;BME280;33067;49.296;14.470;2023-01-19T08:32:56;96029.54;;;3.67;40.49
47080;BME280;33067;49.296;14.470;2023-01-19T08:35:22;96029.17;;;3.53;40.61
47080;BME280;33067;49.296;14.470;2023-01-19T08:37:49;96025.54;;;3.13;41.35
47080;BME280;33067;49.296;14.470;2023-01-19T08:40:12;96022.03;;;3.45;41.35
47080;BME280;33067;49.296;14.470;2023-01-19T08:42:38;96021.19;;;3.33;41.20
47080;BME280;33067;49.296;14.470;2023-01-19T08:45:06;96018.53;;;2.81;41.28
47080;BME280;33067;49.296;14.470;2023-01-19T08:47:29;96014.03;;;2.72;41.45
47080;BME280;33067;49.296;14.470;2023-01-19T08:49:54;96007.45;;;2.59;41.43
47080;BME280;33067;49.296;14.470;2023-01-19T08:52:21;96008.41;;;2.05;41.57
47080;BME280;33067;49.296;14.470;2023-01-19T08:54:44;96007.26;;;2.48;40.98
47080;BME280;33067;49.296;14.470;2023-01-19T08:57:09;96006.69;;;3.56;40.66
47080;BME280;33067;49.296;14.470;2023-01-19T08:59:35;96010.64;;;2.96;40.48
47080;BME280;33067;49.296;14.470;2023-01-19T09:02:01;96010.76;;;2.82;40.54
47080;BME280;33067;49.296;14.470;2023-01-19T09:04:26;96007.27;;;2.67;40.54
47080;BME280;33067;49.296;14.470;2023-01-19T09:06:52;96004.90;;;2.82;40.60
47080;BME280;33067;49.296;14.470;2023-01-19T09:09:17;96001.82;;;2.16;40.07
47080;BME280;33067;49.296;14.470;2023-01-19T09:11:42;96004.62;;;2.39;39.89
47080;BME280;33067;49.296;14.470;2023-01-19T09:14:08;96001.51;;;3.34;38.73
47080;BME280;33067;49.296;14.470;2023-01-19T09:16:34;96001.30;;;3.38;38.57
47080;BME280;33067;49.296;14.470;2023-01-19T09:19:00;95996.77;;;3.71;38.09
47080;BME280;33067;49.296;14.470;2023-01-19T09:21:25;96010.28;;;3.01;38.89
47080;BME280;33067;49.296;14.470;2023-01-19T09:23:50;96012.20;;;2.34;39.09
47080;BME280;33067;49.296;14.470;2023-01-19T09:26:15;96011.50;;;1.63;39.91
47080;BME280;33067;49.296;14.470;2023-01-19T09:28:40;96020.58;;;2.04;39.71
47080;BME280;33067;49.296;14.470;2023-01-19T09:31:06;96023.06;;;2.34;39.32
47080;BME280;33067;49.296;14.470;2023-01-19T09:33:31;96023.45;;;2.55;38.82
47080;BME280;33067;49.296;14.470;2023-01-19T09:35:57;96024.18;;;1.80;39.53
47080;BME280;33067;49.296;14.470;2023-01-19T09:38:23;96028.75;;;2.17;39.66
47080;BME280;33067;49.296;14.470;2023-01-19T09:40:51;96031.37;;;2.54;39.56
47080;BME280;33067;49.296;14.470;2023-01-19T09:43:17;96036.11;;;2.44;39.04
47080;BME280;33067;49.296;14.470;2023-01-19T09:45:44;96037.03;;;2.50;39.06
47080;BME280;33067;49.296;14.470;2023-01-19T09:48:07;96040.02;;;2.36;39.26
47080;BME280;33067;49.296;14.470;2023-01-19T09:50:32;96044.94;;;2.53;38.80
47080;BME280;33067;49.296;14.470;2023-01-19T09:52:57;96048.97;;;2.35;38.93
47080;BME280;33067;49.296;14.470;2023-01-19T09:55:24;96052.84;;;2.32;38.40
47080;BME280;33067;49.296;14.470;2023-01-19T09:57:46;96053.10;;;2.96;38.01
47080;BME280;33067;49.296;14.470;2023-01-19T10:00:14;96055.58;;;2.93;37.69
47080;BME280;33067;49.296;14.470;2023-01-19T10:02:41;96060.98;;;3.04;37.25
47080;BME280;33067;49.296;14.470;2023-01-19T10:05:19;96065.03;;;3.73;36.92
47080;BME280;33067;49.296;14.470;2023-01-19T10:07:39;96065.89;;;2.93;37.27
47080;BME280;33067;49.296;14.470;2023-01-19T10:10:05;96063.59;;;3.17;36.69
47080;BME280;33067;49.296;14.470;2023-01-19T10:12:28;96065.07;;;3.17;36.85
47080;BME280;33067;49.296;14.470;2023-01-19T10:14:47;96060.97;;;3.98;36.08
47080;BME280;33067;49.296;14.470;2023-01-19T10:17:18;96058.73;;;5.03;35.15
47080;BME280;33067;49.296;14.470;2023-01-19T10:19:36;96061.84;;;3.28;36.00
47080;BME280;33067;49.296;14.470;2023-01-19T10:22:03;96061.54;;;3.52;36.02
47080;BME280;33067;49.296;14.470;2023-01-19T10:24:29;96053.90;;;3.82;35.52
47080;BME280;33067;49.296;14.470;2023-01-19T10:26:53;96062.43;;;3.15;36.15
47080;BME280;33067;49.296;14.470;2023-01-19T10:29:21;96062.92;;;2.61;36.05
47080;BME280;33067;49.296;14.470;2023-01-19T10:31:43;96061.66;;;2.30;36.87
47080;BME280;33067;49.296;14.470;2023-01-19T10:34:08;96061.28;;;3.22;36.13
47080;BME280;33067;49.296;14.470;2023-01-19T10:36:35;96061.97;;;3.24;36.08
47080;BME280;33067;49.296;14.470;2023-01-19T10:38:58;96055.24;;;3.33;35.38
47080;BME280;33067;49.296;14.470;2023-01-19T10:41:27;96056.87;;;3.59;34.93
47080;BME280;33067;49.296;14.470;2023-01-19T10:43:57;96052.58;;;3.57;35.50
47080;BME280;33067;49.296;14.470;2023-01-19T10:46:21;96051.75;;;2.85;35.59
47080;BME280;33067;49.296;14.470;2023-01-19T10:48:40;96053.49;;;2.75;36.41
47080;BME280;33067;49.296;14.470;2023-01-19T10:51:05;96054.89;;;2.87;36.17
47080;BME280;33067;49.296;14.470;2023-01-19T10:53:30;96047.59;;;3.49;35.75
47080;BME280;33067;49.296;14.470;2023-01-19T10:58:27;96051.21;;;3.58;35.12
47080;BME280;33067;49.296;14.470;2023-01-19T11:00:46;96053.71;;;3.18;35.86
47080;BME280;33067;49.296;14.470;2023-01-19T11:03:21;96049.67;;;3.37;36.16
47080;BME280;33067;49.296;14.470;2023-01-19T11:05:37;96050.30;;;2.52;36.74
47080;BME280;33067;49.296;14.470;2023-01-19T11:10:29;96048.00;;;1.82;38.12
47080;BME280;33067;49.296;14.470;2023-01-19T11:12:58;96049.90;;;1.87;38.33
47080;BME280;33067;49.296;14.470;2023-01-19T11:15:21;96048.16;;;2.43;37.49
47080;BME280;33067;49.296;14.470;2023-01-19T11:17:45;96048.52;;;2.67;37.21
47080;BME280;33067;49.296;14.470;2023-01-19T11:20:19;96047.82;;;2.29;37.71
47080;BME280;33067;49.296;14.470;2023-01-19T11:22:35;96046.11;;;2.14;38.28
47080;BME280;33067;49.296;14.470;2023-01-19T11:25:01;96045.23;;;2.87;37.38
47080;BME280;33067;49.296;14.470;2023-01-19T11:27:26;96039.74;;;3.42;36.98
47080;BME280;33067;49.296;14.470;2023-01-19T11:29:59;96037.11;;;3.65;36.37
47080;BME280;33067;49.296;14.470;2023-01-19T11:32:20;96030.30;;;3.68;36.25
47080;BME280;33067;49.296;14.470;2023-01-19T11:34:42;96022.54;;;3.35;36.13
47080;BME280;33067;49.296;14.470;2023-01-19T11:37:24;96025.21;;;3.49;35.96
47080;BME280;33067;49.296;14.470;2023-01-19T11:42:00;96031.08;;;2.95;37.08
47080;BME280;33067;49.296;14.470;2023-01-19T11:44:27;96030.92;;;3.43;36.99
47080;BME280;33067;49.296;14.470;2023-01-19T11:46:52;96029.25;;;2.52;37.94
47080;BME280;33067;49.296;14.470;2023-01-19T11:49:20;96030.49;;;2.44;37.69
47080;BME280;33067;49.296;14.470;2023-01-19T11:51:49;96025.47;;;2.81;37.34
47080;BME280;33067;49.296;14.470;2023-01-19T11:54:14;96029.81;;;2.46;37.90
47080;BME280;33067;49.296;14.470;2023-01-19T11:56:29;96028.69;;;2.79;37.90
47080;BME280;33067;49.296;14.470;2023-01-19T11:58:55;96029.86;;;3.08;37.49
47080;BME280;33067;49.296;14.470;2023-01-19T12:01:22;96031.79;;;3.38;37.12
47080;BME280;33067;49.296;14.470;2023-01-19T12:03:53;96030.54;;;3.97;36.38
47080;BME280;33067;49.296;14.470;2023-01-19T12:06:16;96025.71;;;4.21;34.64
47080;BME280;33067;49.296;14.470;2023-01-19T12:08:41;96032.70;;;3.65;35.75
47080;BME280;33067;49.296;14.470;2023-01-19T12:11:04;96034.48;;;2.53;36.83
47080;BME280;33067;49.296;14.470;2023-01-19T12:13:28;96034.07;;;3.22;36.27
47080;BME280;33067;49.296;14.470;2023-01-19T12:16:03;96024.87;;;3.64;35.52
47080;BME280;33067;49.296;14.470;2023-01-19T12:18:20;96022.39;;;3.73;35.34
47080;BME280;33067;49.296;14.470;2023-01-19T12:20:47;96021.94;;;1.82;35.50
47080;BME280;33067;49.296;14.470;2023-01-19T12:23:20;96023.65;;;4.76;33.51
47080;BME280;33067;49.296;14.470;2023-01-19T12:25:43;96020.20;;;4.21;33.96
47080;BME280;33067;49.296;14.470;2023-01-19T12:28:01;96019.14;;;3.66;35.16
47080;BME280;33067;49.296;14.470;2023-01-19T12:30:28;96023.42;;;3.35;35.40
47080;BME280;33067;49.296;14.470;2023-01-19T12:32:51;96026.34;;;3.08;35.91
47080;BME280;33067;49.296;14.470;2023-01-19T12:37:42;96019.38;;;3.76;35.80
47080;BME280;33067;49.296;14.470;2023-01-19T12:40:21;96017.69;;;4.10;35.06
47080;BME280;33067;49.296;14.470;2023-01-19T12:42:33;96019.57;;;3.91;35.23
47080;BME280;33067;49.296;14.470;2023-01-19T12:45:04;96016.12;;;3.94;34.68
47080;BME280;33067;49.296;14.470;2023-01-19T12:47:24;96018.56;;;2.84;35.99
47080;BME280;33067;49.296;14.470;2023-01-19T12:49:52;96015.92;;;3.96;35.07
47080;BME280;33067;49.296;14.470;2023-01-19T12:52:21;96013.50;;;3.61;35.73
47080;BME280;33067;49.296;14.470;2023-01-19T12:54:49;96018.44;;;2.62;36.99
47080;BME280;33067;49.296;14.470;2023-01-19T12:57:08;96022.70;;;2.71;37.71
47080;BME280;33067;49.296;14.470;2023-01-19T12:59:33;96020.68;;;1.75;38.54
47080;BME280;33067;49.296;14.470;2023-01-19T13:04:28;96022.17;;;2.13;38.34